Time;durP1;ratioP1;P1;durP2;ratioP2;P2;SDS_P1;SDS_P2;PMS_P1;PMS_P2;Temp;Humidity;BMP_temperature;BMP_pressure;BME280_temperature;BME280_humidity;BME280_pressure;Samples;Min_cycle;Max_cycle;Signal;HPM_P1;HPM_P2
2021/06/22 00:00:30;;;;;;;12.43;8.48;;;17.50;99.90;;;17.83;70.65;101508.81;5136203;27;20088;-68
2021/06/22 00:02:58;;;;;;;12.90;7.38;;;17.50;99.90;;;17.15;70.93;101389.13;5136274;27;20088;-68
2021/06/22 00:05:28;;;;;;;13.80;8.52;;;17.50;99.90;;;17.83;70.77;101503.47;5135869;27;20043;-68
2021/06/22 00:07:57;;;;;;;12.85;7.68;;;17.50;99.90;;;17.80;70.53;101508.03;5135811;27;20053;-68
2021/06/22 00:10:29;;;;;;;12.60;8.02;;;17.50;99.90;;;17.74;70.70;101506.38;5135739;27;20043;-68
2021/06/22 00:13:00;;;;;;;13.25;7.70;;;17.50;99.90;;;17.56;70.82;101492.53;5117571;27;20051;-68
2021/06/22 00:15:31;;;;;;;11.63;7.82;;;17.40;99.90;;;17.71;70.65;101529.66;5136042;27;20107;-68
2021/06/22 00:18:00;;;;;;;13.55;8.07;;;17.50;99.90;;;17.71;71.07;101519.81;5135919;27;20055;-68
2021/06/22 00:20:29;;;;;;;13.25;7.80;;;17.40;99.90;;;17.68;70.86;101521.69;5135865;27;20043;-68
2021/06/22 00:22:57;;;;;;;15.00;7.63;;;17.40;99.90;;;17.77;71.10;101526.81;5135843;27;20078;-68
2021/06/22 00:25:26;;;;;;;13.52;7.68;;;17.50;99.90;;;17.76;70.91;101517.03;5135375;27;20040;-68
2021/06/22 00:27:56;;;;;;;14.90;7.75;;;17.50;99.90;;;17.74;70.71;101513.53;5135711;27;20043;-68
2021/06/22 00:30:25;;;;;;;18.05;8.35;;;17.40;99.90;;;17.78;70.72;101515.22;5135513;27;20050;-68
2021/06/22 00:32:55;;;;;;;18.67;8.73;;;17.50;99.90;;;17.72;70.69;101523.38;5116839;27;20132;-68
2021/06/22 00:35:25;;;;;;;14.95;9.15;;;17.50;99.90;;;17.69;70.54;101518.09;5135608;27;20070;-68
2021/06/22 00:37:54;;;;;;;14.40;9.00;;;17.50;99.90;;;17.62;70.82;101514.69;5135317;27;20438;-68
2021/06/22 00:40:23;;;;;;;13.93;8.57;;;17.40;99.90;;;17.63;71.12;101503.09;5135428;27;20043;-68
2021/06/22 00:42:53;;;;;;;13.90;8.45;;;17.40;99.90;;;17.64;71.26;101507.50;5117029;27;20039;-68
2021/06/22 00:45:29;;;;;;;12.52;8.32;;;17.40;99.90;;;17.63;71.47;101495.06;5116489;27;20096;-68
2021/06/22 00:48:06;;;;;;;13.48;8.52;;;17.30;99.90;;;17.60;71.26;101483.53;5135427;27;20067;-67
2021/06/22 00:50:34;;;;;;;12.75;8.00;;;17.40;99.90;;;17.68;71.36;101498.50;5116805;27;20051;-68
2021/06/22 00:53:08;;;;;;;15.30;9.20;;;17.40;99.90;;;17.56;71.31;101485.38;5116486;27;20043;-68
2021/06/22 00:55:38;;;;;;;12.80;8.77;;;17.40;99.90;;;17.63;71.30;101480.78;5135118;27;20528;-68
2021/06/22 00:58:28;;;;;;;14.30;8.73;;;17.40;99.90;;;17.68;71.25;101481.53;5116787;27;20552;-68
2021/06/22 01:00:59;;;;;;;10.98;8.27;;;17.40;99.90;;;17.66;71.30;101472.66;5116597;27;20096;-68
2021/06/22 01:03:29;;;;;;;17.35;8.75;;;17.40;99.90;;;17.73;71.66;101479.66;5116905;27;20065;-68
2021/06/22 01:06:04;;;;;;;12.60;7.55;;;17.50;99.90;;;17.74;71.67;101484.06;5116587;27;20057;-68
2021/06/22 01:08:35;;;;;;;11.68;8.65;;;17.50;99.90;;;17.73;71.52;101480.50;5116479;27;20057;-68
2021/06/22 01:11:04;;;;;;;10.77;8.07;;;17.50;99.90;;;17.72;71.56;101488.59;5116339;27;20054;-68
2021/06/22 01:13:35;;;;;;;14.00;9.55;;;17.50;99.90;;;17.73;71.46;101514.44;5115974;27;20145;-68
2021/06/22 01:16:05;;;;;;;15.55;9.20;;;17.50;99.90;;;17.74;71.44;101492.09;5116376;27;20103;-68
2021/06/22 01:18:37;;;;;;;13.85;8.48;;;17.40;99.90;;;17.78;71.47;101489.34;5116304;27;20043;-68
2021/06/22 01:21:28;;;;;;;16.60;8.65;;;17.40;99.90;;;17.78;71.54;101500.03;5134712;27;20092;-68
2021/06/22 01:24:22;;;;;;;11.48;8.85;;;17.50;99.90;;;17.73;71.69;101507.28;5133951;27;20047;-68
2021/06/22 01:26:57;;;;;;;15.45;9.07;;;17.40;99.90;;;17.76;71.52;101519.72;5134578;27;20039;-68
2021/06/22 01:29:28;;;;;;;15.43;9.40;;;17.50;99.90;;;17.72;71.73;101510.00;5116072;27;20043;-68
2021/06/22 01:31:59;;;;;;;13.20;9.32;;;17.40;99.90;;;17.75;71.76;101516.16;5134593;27;20051;-68
2021/06/22 01:34:30;;;;;;;15.18;9.10;;;17.50;99.90;;;17.71;71.75;101522.50;5116041;27;20096;-68
2021/06/22 01:37:01;;;;;;;13.73;9.10;;;17.40;99.90;;;17.00;71.36;101430.47;5134504;27;20046;-67
2021/06/22 01:39:36;;;;;;;12.32;8.80;;;17.50;99.90;;;17.57;71.70;101505.00;5115907;27;20051;-68
2021/06/22 01:42:05;;;;;;;12.60;9.23;;;17.40;99.90;;;17.69;71.71;101518.09;5134339;27;20039;-68
2021/06/22 01:44:39;;;;;;;13.52;9.20;;;17.40;99.90;;;17.71;71.92;101518.97;5134110;27;20043;-68
2021/06/22 01:47:08;;;;;;;11.70;9.05;;;17.40;99.90;;;17.69;71.97;101523.47;5115821;27;20051;-67
2021/06/22 01:49:37;;;;;;;13.55;9.57;;;17.40;99.90;;;17.55;71.76;101506.84;5134165;27;20051;-68
2021/06/22 01:52:08;;;;;;;13.85;8.93;;;17.40;99.90;;;17.62;71.89;101530.75;5115727;27;20047;-68
2021/06/22 01:54:39;;;;;;;11.00;8.40;;;17.40;99.90;;;17.64;71.65;101539.59;5115758;27;20050;-68
2021/06/22 01:57:08;;;;;;;15.05;9.80;;;17.30;99.90;;;17.58;71.67;101534.41;5133298;27;20127;-68
2021/06/22 01:59:43;;;;;;;15.43;9.73;;;17.40;99.90;;;17.58;71.65;101542.41;5115686;28;20043;-67
2021/06/22 02:02:26;;;;;;;13.88;9.77;;;17.30;99.90;;;17.61;71.81;101544.16;5115583;28;20491;-68
2021/06/22 02:05:08;;;;;;;12.32;8.93;;;17.30;99.90;;;17.60;71.89;101539.69;5115639;28;20480;-68
2021/06/22 02:07:40;;;;;;;11.38;8.65;;;17.40;99.90;;;17.61;71.93;101538.81;5115299;27;20051;-67
2021/06/22 02:10:15;;;;;;;14.95;8.77;;;17.30;99.90;;;17.61;71.98;101533.44;5115499;28;20054;-67
2021/06/22 02:13:01;;;;;;;12.73;9.30;;;17.30;99.90;;;17.58;71.80;101533.50;5115342;28;20051;-68
2021/06/22 02:15:30;;;;;;;15.65;9.15;;;17.40;99.90;;;17.44;71.94;101496.31;5115675;28;20059;-68
2021/06/22 02:18:00;;;;;;;13.95;9.45;;;17.30;99.90;;;16.75;71.78;101425.69;5115446;28;20467;-68
2021/06/22 02:20:29;;;;;;;17.15;9.98;;;17.20;99.90;;;17.34;71.90;101526.00;5133826;28;20074;-68
2021/06/22 02:23:00;;;;;;;12.98;9.15;;;17.10;99.90;;;17.35;72.31;101523.28;5133846;28;20046;-68
2021/06/22 02:25:29;;;;;;;17.77;9.70;;;17.10;99.90;;;17.39;72.08;101526.78;5115313;28;20051;-68
2021/06/22 02:28:05;;;;;;;14.65;9.57;;;17.10;99.90;;;17.36;71.99;101527.75;5133739;28;20100;-67
2021/06/22 02:30:36;;;;;;;13.77;8.63;;;17.10;99.90;;;17.43;72.30;101518.66;5115260;28;20056;-69
2021/06/22 02:33:05;;;;;;;11.50;8.95;;;17.20;99.90;;;17.43;72.46;101515.97;5115420;28;20487;-68
2021/06/22 02:35:35;;;;;;;13.43;9.13;;;17.20;99.90;;;17.39;71.95;101522.31;5132441;28;20054;-68
2021/06/22 02:38:12;;;;;;;13.07;8.65;;;17.20;99.90;;;17.32;72.23;101517.13;5115359;28;20054;-68
2021/06/22 02:40:48;;;;;;;13.60;8.38;;;17.10;99.90;;;17.38;72.34;101543.75;5133695;28;20051;-68
2021/06/22 02:43:20;;;;;;;12.45;9.10;;;17.10;99.90;;;17.44;72.28;101522.22;5115291;28;20079;-68
2021/06/22 02:45:50;;;;;;;11.68;7.85;;;17.10;99.90;;;17.47;72.36;101527.50;5114995;28;20047;-68
2021/06/22 02:48:23;;;;;;;10.65;8.02;;;17.20;99.90;;;17.46;72.37;101523.06;5115229;28;20504;-68
2021/06/22 02:50:53;;;;;;;11.48;8.10;;;17.20;99.90;;;17.40;72.24;101532.06;5103882;28;20082;-68
2021/06/22 02:53:28;;;;;;;12.50;7.65;;;17.10;99.90;;;17.50;71.90;101531.00;5094496;28;20044;-68
2021/06/22 02:55:59;;;;;;;13.38;8.18;;;17.20;99.90;;;17.53;71.88;101535.41;5112829;28;20071;-68
2021/06/22 02:58:38;;;;;;;14.98;8.05;;;17.20;99.90;;;17.49;71.70;101531.03;5094830;28;20501;-68
2021/06/22 03:01:10;;;;;;;12.15;6.75;;;17.20;99.90;;;17.50;71.56;101536.34;5094645;28;20043;-68
2021/06/22 03:03:39;;;;;;;14.27;8.20;;;17.20;99.90;;;17.50;71.29;101536.34;5094662;28;20131;-68
2021/06/22 03:06:11;;;;;;;14.27;8.05;;;17.20;99.90;;;17.54;71.03;101538.06;5094960;28;20431;-68
2021/06/22 03:09:07;;;;;;;13.20;6.97;;;17.20;99.90;;;17.54;71.00;101543.41;5106870;28;20051;-68
2021/06/22 03:11:40;;;;;;;13.55;7.10;;;17.20;99.90;;;17.53;70.92;101546.13;5098335;28;20043;-68
2021/06/22 03:14:12;;;;;;;13.43;7.53;;;17.20;99.90;;;16.91;70.99;101448.50;5097955;28;20051;-67
2021/06/22 03:16:55;;;;;;;14.10;7.00;;;17.20;99.90;;;17.52;70.90;101547.91;5098213;28;20051;-68
2021/06/22 03:19:24;;;;;;;14.63;7.88;;;17.20;99.90;;;17.47;70.59;101557.81;5098211;28;20047;-68
2021/06/22 03:21:58;;;;;;;14.32;7.18;;;17.20;99.90;;;17.54;70.55;101553.22;5098213;28;20126;-68
2021/06/22 03:24:29;;;;;;;14.93;7.15;;;17.30;99.90;;;17.47;70.38;101562.25;5098126;28;20044;-68
2021/06/22 03:26:58;;;;;;;15.15;7.68;;;17.20;99.90;;;17.48;70.34;101564.94;5116382;28;20481;-68
2021/06/22 03:29:34;;;;;;;12.80;7.20;;;17.20;99.90;;;17.53;70.28;101567.53;5097985;28;20142;-68
2021/06/22 03:32:10;;;;;;;15.25;7.40;;;17.30;99.90;;;17.52;70.42;101571.97;5116360;28;20043;-68
2021/06/22 03:34:39;;;;;;;16.42;7.65;;;17.20;99.90;;;17.47;70.60;101564.94;5115978;28;20504;-68
2021/06/22 03:37:08;;;;;;;13.27;7.40;;;17.20;99.90;;;17.44;70.63;101567.69;5116142;28;20084;-68
2021/06/22 03:39:40;;;;;;;12.55;7.05;;;17.10;99.90;;;17.46;70.89;101569.41;5097972;28;20583;-68
2021/06/22 03:42:09;;;;;;;14.38;7.75;;;17.10;99.90;;;17.47;70.71;101571.19;5115925;28;20606;-68
2021/06/22 03:44:38;;;;;;;12.63;7.70;;;17.20;99.90;;;17.48;70.57;101574.75;5097746;28;20489;-68
2021/06/22 03:47:12;;;;;;;14.05;8.77;;;17.20;99.90;;;17.48;70.67;101577.41;5098039;28;20047;-68
2021/06/22 03:49:41;;;;;;;15.88;7.43;;;17.20;99.90;;;17.41;70.65;101570.41;5097608;28;20134;-68
2021/06/22 03:52:10;;;;;;;16.83;8.07;;;17.20;99.90;;;17.38;70.81;101574.03;5115433;28;20054;-68
2021/06/22 03:54:42;;;;;;;13.55;8.13;;;17.10;99.90;;;17.42;70.81;101572.19;5097271;28;20071;-68
2021/06/22 03:57:11;;;;;;;15.35;7.40;;;17.10;99.90;;;17.44;70.67;101573.03;5097494;28;20146;-68
2021/06/22 04:00:00;;;;;;;16.30;8.13;;;17.20;99.90;;;17.36;70.80;101561.63;5100951;28;20489;-68
2021/06/22 04:02:32;;;;;;;15.63;8.38;;;17.10;99.90;;;17.32;70.81;101576.84;5097386;28;20048;-68
2021/06/22 04:05:00;;;;;;;15.35;8.27;;;17.10;99.90;;;17.35;70.80;101551.81;5115721;28;20374;-68
2021/06/22 04:07:43;;;;;;;13.68;8.20;;;17.10;99.90;;;17.38;71.05;101560.66;5097383;28;20134;-68
2021/06/22 04:10:14;;;;;;;17.40;8.38;;;17.10;99.90;;;17.40;70.87;101556.16;5096943;28;20394;-68
2021/06/22 04:12:46;;;;;;;15.88;8.80;;;17.10;99.90;;;17.39;70.81;101551.72;5096943;28;20063;-67
2021/06/22 04:15:16;;;;;;;20.48;9.13;;;17.10;99.90;;;17.45;70.56;101550.72;5097196;28;20069;-68
2021/06/22 04:17:45;;;;;;;17.67;10.02;;;17.20;99.90;;;17.48;70.18;101556.91;5097102;28;20048;-68
2021/06/22 04:20:15;;;;;;;16.70;10.18;;;17.20;99.90;;;17.39;70.17;101559.75;5096979;28;20384;-68
2021/06/22 04:22:43;;;;;;;19.35;9.25;;;17.20;99.90;;;17.41;70.07;101557.03;5115299;28;20058;-68
2021/06/22 04:25:20;;;;;;;17.80;10.88;;;17.10;99.90;;;17.35;69.70;101557.16;5096747;28;20047;-68
2021/06/22 04:27:49;;;;;;;23.52;11.35;;;17.10;99.90;;;17.30;69.42;101559.06;5097019;28;20113;-68
2021/06/22 04:30:19;;;;;;;16.52;12.07;;;17.10;99.90;;;17.27;68.86;101549.31;5115055;28;20096;-68
2021/06/22 04:32:47;;;;;;;19.85;13.20;;;17.10;99.90;;;17.15;69.23;101547.78;5115145;28;20050;-68
2021/06/22 04:35:16;;;;;;;20.75;12.50;;;17.00;99.90;;;17.31;69.01;101563.50;5115070;28;20040;-68
2021/06/22 04:37:46;;;;;;;19.67;13.57;;;17.00;99.90;;;17.34;68.89;101568.78;5115077;28;20047;-68
2021/06/22 04:40:16;;;;;;;18.90;14.10;;;17.10;99.90;;;17.35;68.54;101568.75;5114854;28;20052;-68
2021/06/22 04:42:45;;;;;;;24.45;15.85;;;17.10;99.90;;;17.35;68.25;101574.09;5114919;28;20043;-68
2021/06/22 04:45:15;;;;;;;19.70;14.60;;;17.10;99.90;;;17.34;68.30;101572.34;5114920;28;20374;-68
2021/06/22 04:47:43;;;;;;;24.02;15.10;;;17.10;99.90;;;17.40;68.02;101580.22;5114777;28;20039;-67
2021/06/22 04:50:12;;;;;;;22.15;15.25;;;17.10;99.90;;;17.39;67.99;101575.81;5114503;28;20047;-68
2021/06/22 04:52:40;;;;;;;22.98;16.33;;;17.10;99.90;;;17.35;67.55;101581.25;5114609;28;20484;-68
2021/06/22 04:55:13;;;;;;;22.25;17.35;;;17.10;99.90;;;17.29;67.45;101574.22;5114355;28;20644;-68
2021/06/22 04:57:43;;;;;;;21.65;16.17;;;17.10;99.90;;;17.31;67.30;101583.09;5114586;28;20047;-67
2021/06/22 05:00:16;;;;;;;23.13;16.83;;;17.10;99.90;;;17.17;67.41;101562.91;5096234;28;20481;-68
2021/06/22 05:02:45;;;;;;;27.40;18.15;;;17.00;99.90;;;17.36;67.22;101588.38;5096315;28;20043;-68
2021/06/22 05:05:15;;;;;;;26.55;18.63;;;17.10;99.90;;;17.26;66.90;101587.69;5096197;28;20135;-68
2021/06/22 05:07:47;;;;;;;23.13;17.35;;;17.10;99.90;;;17.35;67.05;101594.59;5114439;28;20100;-68
2021/06/22 05:10:15;;;;;;;26.40;17.52;;;17.10;99.90;;;17.28;67.05;101598.34;5114353;28;20108;-68
2021/06/22 05:12:45;;;;;;;27.02;18.92;;;17.00;99.90;;;17.31;66.92;101595.59;5114065;28;20075;-68
2021/06/22 05:15:21;;;;;;;27.38;18.00;;;17.10;99.90;;;17.11;66.91;101593.34;5114238;28;20053;-68
2021/06/22 05:17:50;;;;;;;26.33;18.75;;;17.00;99.90;;;17.26;67.24;101614.41;5114222;28;20062;-68
2021/06/22 05:20:18;;;;;;;29.05;18.80;;;17.00;99.90;;;17.17;66.91;101616.38;5095855;28;20511;-68
2021/06/22 05:22:47;;;;;;;30.02;19.15;;;17.00;99.90;;;17.31;67.51;101608.94;5113803;28;20126;-68
2021/06/22 05:25:16;;;;;;;25.50;17.77;;;17.10;99.90;;;17.33;66.99;101617.81;5114099;28;20055;-68
2021/06/22 05:27:44;;;;;;;29.10;19.05;;;17.10;99.90;;;17.34;67.17;101614.25;5114028;28;20076;-68
2021/06/22 05:30:14;;;;;;;23.83;18.15;;;17.10;99.90;;;17.35;66.97;101618.69;5112938;28;20062;-67
2021/06/22 05:32:44;;;;;;;24.15;18.40;;;17.10;99.90;;;17.35;67.28;101608.88;5113890;28;20042;-67
2021/06/22 05:35:14;;;;;;;28.15;18.02;;;17.10;99.90;;;17.43;67.25;101614.06;5113936;28;20097;-67
2021/06/22 05:37:42;;;;;;;29.48;18.90;;;17.20;99.90;;;17.40;67.03;101612.31;5113891;28;20058;-67
2021/06/22 05:40:12;;;;;;;24.27;17.83;;;17.20;99.90;;;17.31;67.10;101612.53;5095497;28;20501;-67
2021/06/22 05:42:41;;;;;;;30.25;17.95;;;17.10;99.90;;;17.30;66.82;101600.06;5095410;28;20485;-67
2021/06/22 05:45:10;;;;;;;26.20;18.50;;;17.10;99.90;;;17.34;66.89;101611.59;5113665;28;20093;-67
2021/06/22 05:47:39;;;;;;;28.13;18.42;;;17.10;99.90;;;17.38;66.69;101611.47;5113648;28;20101;-67
2021/06/22 05:50:10;;;;;;;28.40;17.90;;;17.10;99.90;;;17.38;66.13;101618.63;5113357;28;20119;-67
2021/06/22 05:52:40;;;;;;;29.42;18.80;;;17.20;99.90;;;16.88;66.03;101528.72;5113632;28;20056;-67
2021/06/22 05:55:17;;;;;;;26.10;18.90;;;17.20;99.90;;;17.52;65.63;101613.91;5113168;28;20050;-67
2021/06/22 05:57:48;;;;;;;25.15;17.05;;;17.30;99.90;;;17.55;65.04;101613.84;5113477;28;20126;-67
2021/06/22 06:00:18;;;;;;;24.52;16.80;;;17.30;99.90;;;17.52;63.88;101609.44;5113484;28;20044;-68
2021/06/22 06:02:49;;;;;;;;;;;17.30;99.90;;;17.55;63.71;101617.41;5113886;28;20039;-68
2021/06/22 06:05:19;;;;;;;26.33;19.50;;;17.40;99.90;;;17.68;63.23;101615.34;5078423;28;19927;-67
2021/06/22 06:07:49;;;;;;;28.90;16.65;;;17.50;99.90;;;17.68;62.14;101596.59;5095148;28;20078;-67
2021/06/22 06:10:19;;;;;;;27.10;17.48;;;17.50;99.90;;;17.69;61.34;101620.66;5113049;28;20040;-67
2021/06/22 06:12:48;;;;;;;21.08;17.63;;;17.40;99.90;;;17.67;61.26;101613.59;5113239;28;20040;-67
2021/06/22 06:15:18;;;;;;;25.05;17.25;;;17.40;99.90;;;17.70;60.80;101634.94;5113476;28;20047;-67
2021/06/22 06:17:47;;;;;;;;;;;17.50;99.90;;;17.66;60.50;101606.47;5113574;28;20114;-68
2021/06/22 06:20:17;;;;;;;25.88;17.25;;;17.50;99.90;;;17.70;60.09;101616.19;5094928;28;19939;-67
2021/06/22 06:22:48;;;;;;;23.20;16.45;;;17.50;99.90;;;17.79;59.65;101622.22;5113370;28;20116;-67
2021/06/22 06:25:17;;;;;;;21.85;16.17;;;17.60;99.90;;;17.21;59.89;101521.84;5113257;28;20047;-67
2021/06/22 06:27:50;;;;;;;21.00;16.15;;;17.60;99.90;;;17.78;59.10;101625.81;5113177;28;20055;-67
2021/06/22 06:30:23;;;;;;;22.42;15.88;;;17.60;99.90;;;17.89;58.28;101629.16;5094987;28;20147;-67
2021/06/22 06:32:54;;;;;;;21.30;15.05;;;17.60;99.90;;;17.32;57.66;101525.16;5113274;28;20093;-67
2021/06/22 06:35:26;;;;;;;19.33;14.70;;;17.70;99.90;;;17.83;57.02;101644.44;5113180;28;20093;-67
2021/06/22 06:37:56;;;;;;;17.00;14.40;;;17.60;99.90;;;17.93;57.45;101646.00;5113187;28;20059;-67
2021/06/22 06:40:26;;;;;;;19.30;14.85;;;17.70;99.90;;;17.87;57.49;101622.94;5112892;28;20036;-67
2021/06/22 06:42:55;;;;;;;24.30;15.85;;;17.70;99.90;;;18.04;57.55;101650.22;5116499;28;20067;-67
2021/06/22 06:45:24;;;;;;;16.60;13.70;;;17.80;99.90;;;18.14;56.47;101653.56;5117235;28;20043;-67
2021/06/22 06:47:53;;;;;;;17.52;14.38;;;17.90;99.90;;;18.29;57.00;101657.69;5098833;28;20046;-67
2021/06/22 06:50:22;;;;;;;24.15;14.73;;;18.00;99.90;;;18.48;56.03;101667.09;5098767;28;20104;-67
2021/06/22 06:52:51;;;;;;;16.88;13.55;;;18.20;99.90;;;18.63;56.99;101661.34;5098582;28;20469;-68
2021/06/22 06:55:28;;;;;;;21.15;13.57;;;18.40;99.90;;;18.68;55.01;101656.75;5116776;28;20039;-67
2021/06/22 06:58:00;;;;;;;17.80;14.23;;;18.40;99.90;;;18.73;54.72;101661.09;5116937;28;20051;-67
2021/06/22 07:00:30;;;;;;;19.42;13.95;;;18.50;99.90;;;18.72;54.66;101670.03;5116974;28;20055;-68
2021/06/22 07:02:59;;;;;;;19.65;13.52;;;18.50;99.90;;;18.68;53.94;101684.44;5117465;28;20146;-68
2021/06/22 07:05:30;;;;;;;23.45;13.60;;;18.50;99.90;;;18.45;54.00;101649.28;5116507;28;20493;-67
2021/06/22 07:07:59;;;;;;;;;;;18.50;99.90;;;18.62;54.27;101683.72;5117238;28;20464;-67
2021/06/22 07:10:28;;;;;;;16.42;13.15;;;18.40;99.90;;;18.66;54.42;101686.28;5116704;28;19972;-67
2021/06/22 07:12:58;;;;;;;18.43;13.27;;;18.40;99.90;;;18.65;54.65;101683.63;5116414;28;20507;-67
2021/06/22 07:15:27;;;;;;;19.13;14.10;;;18.40;99.90;;;18.70;54.41;101685.28;5116276;28;20288;-67
2021/06/22 07:17:56;;;;;;;16.88;13.60;;;18.40;99.90;;;18.78;54.68;101682.41;5116497;28;20054;-68
2021/06/22 07:20:25;;;;;;;18.75;14.75;;;18.50;99.90;;;18.81;54.41;101688.56;5116624;28;20126;-68
2021/06/22 07:22:55;;;;;;;34.47;15.32;;;18.60;99.90;;;19.00;54.31;101696.16;5097765;28;20036;-68
2021/06/22 07:25:25;;;;;;;17.23;13.23;;;18.70;99.90;;;19.01;53.55;101696.09;5116281;28;20047;-68
2021/06/22 07:27:56;;;;;;;19.10;13.23;;;18.80;99.90;;;18.95;53.22;101692.72;5116781;28;20096;-67
2021/06/22 07:30:26;;;;;;;21.27;13.15;;;18.70;99.90;;;19.11;53.72;101696.75;5116318;28;20035;-67
2021/06/22 07:32:58;;;;;;;19.90;13.63;;;18.80;99.90;;;19.23;53.39;101691.06;5116262;28;20039;-67
2021/06/22 07:35:29;;;;;;;21.73;11.52;;;19.00;99.90;;;19.17;52.21;101693.91;5116331;28;20073;-67
2021/06/22 07:37:59;;;;;;;;;;;19.00;99.90;;;19.31;53.19;101689.94;5098377;28;20134;-67
2021/06/22 07:40:27;;;;;;;17.77;13.40;;;19.10;99.90;;;19.44;52.58;101686.03;5116115;28;19927;-67
2021/06/22 07:42:57;;;;;;;22.70;13.95;;;19.20;99.90;;;19.59;53.56;101685.59;5116019;28;20088;-70
2021/06/22 07:45:26;;;;;;;14.80;12.68;;;19.30;99.90;;;19.66;51.98;101689.88;5116012;28;20092;-67
2021/06/22 07:47:56;;;;;;;19.23;12.77;;;19.40;99.90;;;19.82;51.74;101695.69;5116051;28;20043;-67
2021/06/22 07:50:25;;;;;;;17.60;12.35;;;19.60;99.90;;;19.91;51.55;101694.53;5115904;28;20047;-67
2021/06/22 07:52:54;;;;;;;18.95;11.82;;;19.70;99.90;;;19.94;51.45;101694.47;5115531;28;20163;-68
2021/06/22 07:55:24;;;;;;;15.98;11.90;;;19.70;99.90;;;20.00;50.66;101694.25;5115025;28;20047;-68
2021/06/22 07:57:55;;;;;;;15.27;12.65;;;19.80;99.90;;;20.14;51.40;101697.41;5115813;28;20397;-67
2021/06/22 08:00:37;;;;;;;16.27;12.50;;;19.90;99.90;;;20.24;50.86;101686.38;5097401;28;20050;-68
2021/06/22 08:03:07;;;;;;;15.60;12.02;;;20.00;99.90;;;20.24;51.38;101688.16;5115716;28;20388;-68
2021/06/22 08:05:35;;;;;;;16.63;11.77;;;20.00;99.90;;;20.13;50.27;101677.72;5097374;28;20053;-68
2021/06/22 08:08:05;;;;;;;16.77;12.35;;;20.00;99.90;;;20.09;51.20;101678.72;5115583;28;20100;-68
2021/06/22 08:10:37;;;;;;;18.17;11.68;;;19.90;99.90;;;20.16;50.85;101676.75;5115581;28;20048;-67
2021/06/22 08:13:06;;;;;;;14.15;11.75;;;19.90;99.90;;;20.17;50.49;101676.69;5115189;28;20440;-68
2021/06/22 08:15:37;;;;;;;13.88;10.98;;;19.90;99.90;;;20.12;49.75;101673.28;5115521;28;20050;-68
2021/06/22 08:18:06;;;;;;;21.27;13.02;;;19.90;99.90;;;20.04;49.81;101674.44;5115490;28;20093;-67
2021/06/22 08:20:36;;;;;;;18.23;11.85;;;19.80;99.90;;;19.35;49.35;101588.81;5097068;28;20069;-67
2021/06/22 08:23:07;;;;;;;14.35;12.82;;;19.70;99.90;;;19.99;50.33;101684.44;5115577;28;20092;-67
2021/06/22 08:25:38;;;;;;;15.55;12.55;;;19.70;99.90;;;19.92;50.57;101669.44;5115544;28;20089;-67
2021/06/22 08:28:06;;;;;;;;;;;19.70;99.90;;;20.17;50.84;101689.28;5115636;28;20044;-68
2021/06/22 08:30:35;;;;;;;16.35;12.40;;;19.90;99.90;;;20.24;50.62;101693.56;5114950;28;19970;-67
2021/06/22 08:33:06;;;;;;;19.00;12.65;;;20.00;99.90;;;20.25;50.31;101690.81;5115020;28;20054;-68
2021/06/22 08:35:36;;;;;;;17.40;12.20;;;20.00;99.90;;;20.26;49.52;101689.00;5114862;28;20043;-67
2021/06/22 08:38:08;;;;;;;23.75;13.20;;;20.00;99.90;;;20.20;49.09;101687.41;5114780;28;20074;-68
2021/06/22 08:40:39;;;;;;;16.33;12.02;;;20.00;99.90;;;20.30;49.25;101680.81;5115021;28;20051;-68
2021/06/22 08:43:10;;;;;;;15.70;11.70;;;20.00;99.90;;;20.20;48.66;101683.81;5114954;28;20040;-67
2021/06/22 08:45:39;;;;;;;26.13;13.60;;;20.00;99.90;;;20.22;49.09;101681.97;5114504;28;20522;-67
2021/06/22 08:48:10;;;;;;;17.85;11.30;;;20.00;99.90;;;19.98;47.49;101680.88;5114775;28;20047;-68
2021/06/22 08:50:40;;;;;;;16.10;11.60;;;19.90;99.90;;;19.99;48.09;101687.13;5114482;28;20043;-67
2021/06/22 08:53:10;;;;;;;13.27;11.30;;;19.80;99.90;;;20.06;49.29;101694.94;5114804;28;20043;-67
2021/06/22 08:55:41;;;;;;;15.33;11.73;;;19.80;99.90;;;20.00;48.69;101689.75;5114578;28;20109;-67
2021/06/22 08:58:16;;;;;;;32.35;14.18;;;19.80;99.90;;;20.02;49.30;101687.91;5114352;28;20044;-67
2021/06/22 09:00:47;;;;;;;13.10;11.55;;;19.80;99.90;;;20.00;48.04;101683.50;5114291;28;20093;-67
2021/06/22 09:03:18;;;;;;;13.38;11.68;;;19.80;99.90;;;20.04;48.95;101698.59;5114299;28;20075;-67
2021/06/22 09:05:50;;;;;;;25.70;13.05;;;19.80;99.90;;;19.99;49.08;101698.75;5113223;28;20047;-67
2021/06/22 09:08:21;;;;;;;16.83;12.18;;;19.80;99.90;;;20.06;49.22;101697.63;5114397;28;20046;-67
2021/06/22 09:10:53;;;;;;;14.57;11.73;;;19.90;99.90;;;19.94;47.70;101687.25;5114339;28;20392;-68
2021/06/22 09:13:26;;;;;;;20.45;11.85;;;19.80;99.90;;;19.99;49.02;101698.75;5113988;28;20505;-67
2021/06/22 09:15:56;;;;;;;18.50;13.55;;;19.80;99.90;;;20.23;50.59;101727.59;5113931;28;20540;-67
2021/06/22 09:18:33;;;;;;;15.93;12.07;;;19.90;99.90;;;20.17;49.85;101684.75;5095962;28;20051;-67
2021/06/22 09:21:04;;;;;;;16.88;13.23;;;20.20;99.90;;;20.37;49.01;101700.28;5114180;28;20039;-67
2021/06/22 09:23:35;;;;;;;19.00;12.63;;;20.20;99.90;;;20.37;48.35;101695.81;5113889;28;20061;-67
2021/06/22 09:26:13;;;;;;;16.25;12.20;;;20.20;99.90;;;20.44;48.95;101696.50;5114137;28;20051;-68
2021/06/22 09:28:42;;;;;;;19.05;12.93;;;20.20;99.90;;;20.54;49.59;101693.44;5113649;28;20047;-67
2021/06/22 09:31:14;;;;;;;21.65;13.55;;;20.30;99.90;;;20.68;48.81;101683.13;5095738;28;20053;-67
2021/06/22 09:33:45;;;;;;;16.92;11.85;;;20.40;99.90;;;20.44;48.61;101672.31;5113590;28;20473;-67
2021/06/22 09:36:17;;;;;;;18.77;12.27;;;20.30;99.90;;;20.72;49.06;101691.97;5095884;28;20054;-67
2021/06/22 09:38:51;;;;;;;18.77;12.15;;;20.40;99.90;;;20.74;48.34;101681.16;5113659;28;20054;-67
2021/06/22 09:41:27;;;;;;;15.15;11.60;;;20.50;99.90;;;20.55;49.02;101668.34;5095352;28;20078;-67
2021/06/22 09:44:02;;;;;;;19.02;11.82;;;20.50;99.90;;;20.83;48.08;101679.03;5095628;28;20469;-67
2021/06/22 09:46:37;;;;;;;12.57;11.25;;;20.60;99.90;;;20.96;46.81;101676.84;5113733;28;20470;-67
2021/06/22 09:49:07;;;;;;;12.65;10.85;;;20.70;99.90;;;20.72;45.47;101673.16;5113766;28;20066;-68
2021/06/22 09:51:45;;;;;;;13.40;11.48;;;20.60;99.90;;;21.04;47.24;101677.50;5113452;28;20047;-67
2021/06/22 09:54:17;;;;;;;14.32;11.30;;;20.70;99.90;;;21.17;48.24;101685.09;5113497;28;20050;-68
2021/06/22 09:57:14;;;;;;;16.58;12.35;;;20.90;99.90;;;21.20;47.31;101684.06;5095108;28;20043;-68
2021/06/22 09:59:51;;;;;;;14.77;11.68;;;21.00;99.90;;;21.38;48.01;101686.13;5095355;28;20093;-68
2021/06/22 10:02:23;;;;;;;14.48;11.85;;;21.10;99.90;;;21.50;48.38;101686.53;5113613;28;20039;-68
2021/06/22 10:04:54;;;;;;;15.65;10.93;;;21.30;99.90;;;21.61;46.72;101688.84;5113334;28;20138;-67
2021/06/22 10:07:25;;;;;;;15.15;11.07;;;21.40;99.90;;;21.58;46.44;101681.75;5113570;28;20074;-68
2021/06/22 10:09:56;;;;;;;13.75;11.38;;;21.40;99.90;;;21.65;46.09;101676.16;5113510;28;20040;-68
2021/06/22 10:12:28;;;;;;;15.95;10.90;;;21.50;99.90;;;21.76;46.16;101690.09;5094927;28;20048;-67
2021/06/22 10:14:59;;;;;;;14.10;10.95;;;21.50;99.90;;;21.82;44.93;101689.91;5113535;28;20055;-68
2021/06/22 10:17:30;;;;;;;14.23;10.45;;;21.60;99.90;;;21.66;45.07;101694.09;5113063;28;20494;-68
2021/06/22 10:20:00;;;;;;;15.38;11.02;;;21.50;99.90;;;21.75;46.44;101694.63;5113425;28;20122;-68